sensor_id;sensor_type;location;lat;lon;timestamp;P1;durP1;ratioP1;P2;durP2;ratioP2
72198;SDS011;72266;51.056;16.880;2023-11-22T00:02:11;24.20;;;10.40;;
72198;SDS011;72266;51.056;16.880;2023-11-22T00:04:44;33.40;;;15.90;;
72198;SDS011;72266;51.056;16.880;2023-11-22T00:07:18;26.30;;;10.90;;
72198;SDS011;72266;51.056;16.880;2023-11-22T00:09:51;34.60;;;14.30;;
72198;SDS011;72266;51.056;16.880;2023-11-22T00:12:25;38.90;;;16.20;;
72198;SDS011;72266;51.056;16.880;2023-11-22T00:14:58;36.40;;;15.50;;
72198;SDS011;72266;51.056;16.880;2023-11-22T00:17:32;22.20;;;9.80;;
72198;SDS011;72266;51.056;16.880;2023-11-22T00:20:07;30.50;;;11.50;;
72198;SDS011;72266;51.056;16.880;2023-11-22T00:22:41;27.40;;;10.70;;
72198;SDS011;72266;51.056;16.880;2023-11-22T00:25:15;30.20;;;13.50;;
72198;SDS011;72266;51.056;16.880;2023-11-22T00:27:49;38.10;;;17.10;;
72198;SDS011;72266;51.056;16.880;2023-11-22T00:30:22;36.20;;;16.30;;
72198;SDS011;72266;51.056;16.880;2023-11-22T00:32:56;26.50;;;11.30;;
72198;SDS011;72266;51.056;16.880;2023-11-22T00:35:29;31.70;;;12.70;;
72198;SDS011;72266;51.056;16.880;2023-11-22T00:38:03;35.60;;;14.60;;
72198;SDS011;72266;51.056;16.880;2023-11-22T00:40:36;25.60;;;10.50;;
72198;SDS011;72266;51.056;16.880;2023-11-22T00:43:10;35.10;;;14.30;;
72198;SDS011;72266;51.056;16.880;2023-11-22T00:45:43;27.30;;;12.30;;
72198;SDS011;72266;51.056;16.880;2023-11-22T00:48:17;28.90;;;13.50;;
72198;SDS011;72266;51.056;16.880;2023-11-22T00:50:50;26.60;;;10.90;;
72198;SDS011;72266;51.056;16.880;2023-11-22T00:53:24;34.10;;;15.90;;
72198;SDS011;72266;51.056;16.880;2023-11-22T00:55:57;26.70;;;12.30;;
72198;SDS011;72266;51.056;16.880;2023-11-22T00:58:31;39.00;;;16.80;;
72198;SDS011;72266;51.056;16.880;2023-11-22T01:01:04;26.10;;;12.10;;
72198;SDS011;72266;51.056;16.880;2023-11-22T01:03:37;32.60;;;14.10;;
72198;SDS011;72266;51.056;16.880;2023-11-22T01:06:11;28.70;;;11.80;;
72198;SDS011;72266;51.056;16.880;2023-11-22T01:08:44;28.60;;;11.80;;
72198;SDS011;72266;51.056;16.880;2023-11-22T01:11:18;32.80;;;14.40;;
72198;SDS011;72266;51.056;16.880;2023-11-22T01:13:51;23.30;;;10.30;;
72198;SDS011;72266;51.056;16.880;2023-11-22T01:16:24;33.60;;;13.10;;
72198;SDS011;72266;51.056;16.880;2023-11-22T01:18:58;28.90;;;12.70;;
72198;SDS011;72266;51.056;16.880;2023-11-22T01:21:32;26.60;;;12.60;;
72198;SDS011;72266;51.056;16.880;2023-11-22T01:24:06;24.60;;;11.60;;
72198;SDS011;72266;51.056;16.880;2023-11-22T01:26:40;27.00;;;13.40;;
72198;SDS011;72266;51.056;16.880;2023-11-22T01:29:14;23.40;;;10.70;;
72198;SDS011;72266;51.056;16.880;2023-11-22T01:31:48;35.50;;;14.40;;
72198;SDS011;72266;51.056;16.880;2023-11-22T01:34:21;32.40;;;14.10;;
72198;SDS011;72266;51.056;16.880;2023-11-22T01:36:55;35.90;;;15.60;;
72198;SDS011;72266;51.056;16.880;2023-11-22T01:39:28;28.20;;;12.70;;
72198;SDS011;72266;51.056;16.880;2023-11-22T01:42:02;21.40;;;9.30;;
72198;SDS011;72266;51.056;16.880;2023-11-22T01:44:36;25.90;;;11.60;;
72198;SDS011;72266;51.056;16.880;2023-11-22T01:47:11;31.60;;;13.80;;
72198;SDS011;72266;51.056;16.880;2023-11-22T01:49:45;37.40;;;15.10;;
72198;SDS011;72266;51.056;16.880;2023-11-22T01:52:19;28.50;;;12.00;;
72198;SDS011;72266;51.056;16.880;2023-11-22T01:54:53;28.90;;;12.60;;
72198;SDS011;72266;51.056;16.880;2023-11-22T01:57:27;29.20;;;10.70;;
72198;SDS011;72266;51.056;16.880;2023-11-22T02:00:02;27.40;;;11.40;;
72198;SDS011;72266;51.056;16.880;2023-11-22T02:02:43;38.20;;;16.30;;
72198;SDS011;72266;51.056;16.880;2023-11-22T02:05:17;32.60;;;13.00;;
72198;SDS011;72266;51.056;16.880;2023-11-22T02:07:50;31.40;;;13.20;;
72198;SDS011;72266;51.056;16.880;2023-11-22T02:10:24;28.20;;;11.40;;
72198;SDS011;72266;51.056;16.880;2023-11-22T02:12:59;30.20;;;13.60;;
72198;SDS011;72266;51.056;16.880;2023-11-22T02:15:35;24.40;;;10.40;;
72198;SDS011;72266;51.056;16.880;2023-11-22T02:18:08;19.50;;;9.20;;
72198;SDS011;72266;51.056;16.880;2023-11-22T02:20:43;27.30;;;11.00;;
72198;SDS011;72266;51.056;16.880;2023-11-22T02:23:16;31.90;;;13.50;;
72198;SDS011;72266;51.056;16.880;2023-11-22T02:25:50;32.00;;;12.70;;
72198;SDS011;72266;51.056;16.880;2023-11-22T02:28:24;21.90;;;9.70;;
72198;SDS011;72266;51.056;16.880;2023-11-22T02:30:57;22.10;;;9.00;;
72198;SDS011;72266;51.056;16.880;2023-11-22T02:33:31;30.70;;;10.40;;
72198;SDS011;72266;51.056;16.880;2023-11-22T02:36:05;33.40;;;13.20;;
72198;SDS011;72266;51.056;16.880;2023-11-22T02:38:42;23.90;;;10.20;;
72198;SDS011;72266;51.056;16.880;2023-11-22T02:41:17;17.70;;;8.50;;
72198;SDS011;72266;51.056;16.880;2023-11-22T02:43:52;33.90;;;13.90;;
72198;SDS011;72266;51.056;16.880;2023-11-22T02:46:25;30.50;;;13.40;;
72198;SDS011;72266;51.056;16.880;2023-11-22T02:49:02;34.30;;;14.90;;
72198;SDS011;72266;51.056;16.880;2023-11-22T02:51:35;28.10;;;11.60;;
72198;SDS011;72266;51.056;16.880;2023-11-22T02:54:09;23.70;;;9.80;;
72198;SDS011;72266;51.056;16.880;2023-11-22T02:56:42;13.60;;;6.30;;
72198;SDS011;72266;51.056;16.880;2023-11-22T02:59:16;26.10;;;10.40;;
72198;SDS011;72266;51.056;16.880;2023-11-22T03:01:49;23.30;;;9.70;;
72198;SDS011;72266;51.056;16.880;2023-11-22T03:04:23;26.10;;;11.60;;
72198;SDS011;72266;51.056;16.880;2023-11-22T03:06:56;25.40;;;10.00;;
72198;SDS011;72266;51.056;16.880;2023-11-22T03:09:31;34.80;;;14.70;;
72198;SDS011;72266;51.056;16.880;2023-11-22T03:12:05;22.90;;;11.10;;
72198;SDS011;72266;51.056;16.880;2023-11-22T03:14:39;27.70;;;12.50;;
72198;SDS011;72266;51.056;16.880;2023-11-22T03:17:14;30.60;;;12.30;;
72198;SDS011;72266;51.056;16.880;2023-11-22T03:19:47;30.20;;;12.70;;
72198;SDS011;72266;51.056;16.880;2023-11-22T03:22:21;28.10;;;10.60;;
72198;SDS011;72266;51.056;16.880;2023-11-22T03:24:55;31.60;;;12.40;;
72198;SDS011;72266;51.056;16.880;2023-11-22T03:27:28;19.60;;;8.70;;
72198;SDS011;72266;51.056;16.880;2023-11-22T03:30:02;27.00;;;11.50;;
72198;SDS011;72266;51.056;16.880;2023-11-22T03:32:42;28.30;;;12.30;;
72198;SDS011;72266;51.056;16.880;2023-11-22T03:35:16;27.00;;;10.40;;
72198;SDS011;72266;51.056;16.880;2023-11-22T03:37:49;24.70;;;10.40;;
72198;SDS011;72266;51.056;16.880;2023-11-22T03:40:23;27.80;;;11.70;;
72198;SDS011;72266;51.056;16.880;2023-11-22T03:42:56;31.70;;;13.50;;
72198;SDS011;72266;51.056;16.880;2023-11-22T03:45:29;29.80;;;12.50;;
72198;SDS011;72266;51.056;16.880;2023-11-22T03:48:03;30.00;;;12.00;;
72198;SDS011;72266;51.056;16.880;2023-11-22T03:50:37;28.00;;;11.90;;
72198;SDS011;72266;51.056;16.880;2023-11-22T03:53:10;29.10;;;11.60;;
72198;SDS011;72266;51.056;16.880;2023-11-22T03:55:43;27.40;;;12.10;;
72198;SDS011;72266;51.056;16.880;2023-11-22T03:58:17;31.40;;;13.50;;
72198;SDS011;72266;51.056;16.880;2023-11-22T04:00:51;29.10;;;12.80;;
72198;SDS011;72266;51.056;16.880;2023-11-22T04:03:25;31.90;;;14.60;;
72198;SDS011;72266;51.056;16.880;2023-11-22T04:05:58;25.80;;;11.30;;
72198;SDS011;72266;51.056;16.880;2023-11-22T04:08:32;21.20;;;8.30;;
72198;SDS011;72266;51.056;16.880;2023-11-22T04:11:05;29.50;;;13.50;;
72198;SDS011;72266;51.056;16.880;2023-11-22T04:13:38;28.00;;;12.20;;
72198;SDS011;72266;51.056;16.880;2023-11-22T04:16:12;28.40;;;12.70;;
72198;SDS011;72266;51.056;16.880;2023-11-22T04:18:47;29.10;;;12.10;;
72198;SDS011;72266;51.056;16.880;2023-11-22T04:21:21;23.20;;;10.60;;
72198;SDS011;72266;51.056;16.880;2023-11-22T04:23:54;31.90;;;14.60;;
72198;SDS011;72266;51.056;16.880;2023-11-22T04:26:27;26.20;;;10.00;;
72198;SDS011;72266;51.056;16.880;2023-11-22T04:29:00;30.00;;;13.60;;
72198;SDS011;72266;51.056;16.880;2023-11-22T04:31:34;19.20;;;8.10;;
72198;SDS011;72266;51.056;16.880;2023-11-22T04:34:10;21.80;;;9.50;;
72198;SDS011;72266;51.056;16.880;2023-11-22T04:36:45;28.60;;;11.40;;
72198;SDS011;72266;51.056;16.880;2023-11-22T04:39:18;19.70;;;8.20;;
72198;SDS011;72266;51.056;16.880;2023-11-22T04:41:51;21.00;;;9.20;;
72198;SDS011;72266;51.056;16.880;2023-11-22T04:44:25;22.80;;;10.20;;
72198;SDS011;72266;51.056;16.880;2023-11-22T04:46:58;17.90;;;8.10;;
72198;SDS011;72266;51.056;16.880;2023-11-22T04:49:31;21.60;;;9.70;;
72198;SDS011;72266;51.056;16.880;2023-11-22T04:52:05;20.00;;;8.60;;
72198;SDS011;72266;51.056;16.880;2023-11-22T04:54:39;13.40;;;6.20;;
72198;SDS011;72266;51.056;16.880;2023-11-22T04:57:12;23.70;;;10.00;;
72198;SDS011;72266;51.056;16.880;2023-11-22T04:59:46;19.10;;;6.80;;
72198;SDS011;72266;51.056;16.880;2023-11-22T05:02:20;24.50;;;10.70;;
72198;SDS011;72266;51.056;16.880;2023-11-22T05:04:53;24.70;;;11.20;;
72198;SDS011;72266;51.056;16.880;2023-11-22T05:07:27;16.80;;;7.50;;
72198;SDS011;72266;51.056;16.880;2023-11-22T05:10:00;22.50;;;10.70;;
72198;SDS011;72266;51.056;16.880;2023-11-22T05:12:34;23.00;;;10.10;;
72198;SDS011;72266;51.056;16.880;2023-11-22T05:15:08;17.10;;;7.10;;
72198;SDS011;72266;51.056;16.880;2023-11-22T05:17:44;21.40;;;9.50;;
72198;SDS011;72266;51.056;16.880;2023-11-22T05:20:17;24.40;;;11.00;;
72198;SDS011;72266;51.056;16.880;2023-11-22T05:22:52;24.40;;;10.80;;
72198;SDS011;72266;51.056;16.880;2023-11-22T05:25:35;23.70;;;9.80;;
72198;SDS011;72266;51.056;16.880;2023-11-22T05:28:09;23.80;;;9.50;;
72198;SDS011;72266;51.056;16.880;2023-11-22T05:30:43;23.80;;;10.90;;
72198;SDS011;72266;51.056;16.880;2023-11-22T05:33:17;21.70;;;9.10;;
72198;SDS011;72266;51.056;16.880;2023-11-22T05:35:50;19.00;;;8.40;;
72198;SDS011;72266;51.056;16.880;2023-11-22T05:38:24;15.00;;;6.20;;
72198;SDS011;72266;51.056;16.880;2023-11-22T05:40:58;17.60;;;7.40;;
72198;SDS011;72266;51.056;16.880;2023-11-22T05:43:32;14.00;;;5.60;;
72198;SDS011;72266;51.056;16.880;2023-11-22T05:46:06;18.90;;;7.50;;
72198;SDS011;72266;51.056;16.880;2023-11-22T05:48:42;12.10;;;5.00;;
72198;SDS011;72266;51.056;16.880;2023-11-22T05:51:16;20.60;;;8.10;;
72198;SDS011;72266;51.056;16.880;2023-11-22T05:53:50;20.00;;;8.20;;
72198;SDS011;72266;51.056;16.880;2023-11-22T05:56:24;20.50;;;8.80;;
72198;SDS011;72266;51.056;16.880;2023-11-22T05:58:57;23.50;;;8.50;;
72198;SDS011;72266;51.056;16.880;2023-11-22T06:01:31;17.80;;;6.90;;
72198;SDS011;72266;51.056;16.880;2023-11-22T06:04:05;23.00;;;8.90;;
72198;SDS011;72266;51.056;16.880;2023-11-22T06:06:39;21.00;;;8.30;;
72198;SDS011;72266;51.056;16.880;2023-11-22T06:09:13;18.30;;;7.10;;
72198;SDS011;72266;51.056;16.880;2023-11-22T06:11:46;17.40;;;7.00;;
72198;SDS011;72266;51.056;16.880;2023-11-22T06:14:20;18.60;;;7.40;;
72198;SDS011;72266;51.056;16.880;2023-11-22T06:16:54;16.60;;;6.70;;
72198;SDS011;72266;51.056;16.880;2023-11-22T06:19:27;20.90;;;9.20;;
72198;SDS011;72266;51.056;16.880;2023-11-22T06:22:01;13.10;;;6.10;;
72198;SDS011;72266;51.056;16.880;2023-11-22T06:24:35;16.10;;;6.40;;
72198;SDS011;72266;51.056;16.880;2023-11-22T06:27:09;16.60;;;7.40;;
72198;SDS011;72266;51.056;16.880;2023-11-22T06:29:43;19.00;;;7.30;;
72198;SDS011;72266;51.056;16.880;2023-11-22T06:32:17;23.40;;;10.20;;
72198;SDS011;72266;51.056;16.880;2023-11-22T06:34:51;20.20;;;9.00;;
72198;SDS011;72266;51.056;16.880;2023-11-22T06:37:26;18.70;;;8.30;;
72198;SDS011;72266;51.056;16.880;2023-11-22T06:40:00;22.50;;;9.40;;
72198;SDS011;72266;51.056;16.880;2023-11-22T06:42:35;20.50;;;7.80;;
72198;SDS011;72266;51.056;16.880;2023-11-22T06:45:09;22.30;;;9.00;;
72198;SDS011;72266;51.056;16.880;2023-11-22T06:47:43;20.20;;;8.00;;
72198;SDS011;72266;51.056;16.880;2023-11-22T06:50:17;22.30;;;8.90;;
72198;SDS011;72266;51.056;16.880;2023-11-22T06:52:51;24.30;;;10.60;;
72198;SDS011;72266;51.056;16.880;2023-11-22T06:55:25;21.60;;;9.80;;
72198;SDS011;72266;51.056;16.880;2023-11-22T06:57:59;22.00;;;9.00;;
72198;SDS011;72266;51.056;16.880;2023-11-22T07:00:32;21.50;;;8.80;;
72198;SDS011;72266;51.056;16.880;2023-11-22T07:03:07;22.30;;;8.90;;
72198;SDS011;72266;51.056;16.880;2023-11-22T07:05:41;16.10;;;6.20;;
72198;SDS011;72266;51.056;16.880;2023-11-22T07:08:15;18.40;;;6.60;;
72198;SDS011;72266;51.056;16.880;2023-11-22T07:10:50;15.60;;;6.30;;
72198;SDS011;72266;51.056;16.880;2023-11-22T07:13:24;23.50;;;9.40;;
72198;SDS011;72266;51.056;16.880;2023-11-22T07:15:58;15.60;;;5.40;;
72198;SDS011;72266;51.056;16.880;2023-11-22T07:18:34;23.40;;;8.70;;
72198;SDS011;72266;51.056;16.880;2023-11-22T07:21:08;21.30;;;7.20;;
72198;SDS011;72266;51.056;16.880;2023-11-22T07:23:42;20.50;;;8.20;;
72198;SDS011;72266;51.056;16.880;2023-11-22T07:26:19;17.70;;;6.70;;
72198;SDS011;72266;51.056;16.880;2023-11-22T07:28:53;19.80;;;7.00;;
72198;SDS011;72266;51.056;16.880;2023-11-22T07:31:26;15.00;;;6.40;;
72198;SDS011;72266;51.056;16.880;2023-11-22T07:34:00;19.20;;;7.80;;
72198;SDS011;72266;51.056;16.880;2023-11-22T07:36:34;20.20;;;7.90;;
72198;SDS011;72266;51.056;16.880;2023-11-22T07:39:09;19.80;;;7.60;;
72198;SDS011;72266;51.056;16.880;2023-11-22T07:41:42;20.60;;;7.90;;
72198;SDS011;72266;51.056;16.880;2023-11-22T07:44:19;25.50;;;9.10;;
72198;SDS011;72266;51.056;16.880;2023-11-22T07:46:54;17.60;;;6.30;;
72198;SDS011;72266;51.056;16.880;2023-11-22T07:49:30;21.90;;;9.00;;
72198;SDS011;72266;51.056;16.880;2023-11-22T07:52:06;17.10;;;6.00;;
72198;SDS011;72266;51.056;16.880;2023-11-22T07:54:44;16.30;;;6.60;;
72198;SDS011;72266;51.056;16.880;2023-11-22T07:57:18;18.50;;;7.80;;
72198;SDS011;72266;51.056;16.880;2023-11-22T07:59:53;18.40;;;7.60;;
72198;SDS011;72266;51.056;16.880;2023-11-22T08:02:36;21.50;;;7.90;;
72198;SDS011;72266;51.056;16.880;2023-11-22T08:05:10;16.80;;;6.30;;
72198;SDS011;72266;51.056;16.880;2023-11-22T08:07:45;15.40;;;5.60;;
72198;SDS011;72266;51.056;16.880;2023-11-22T08:10:20;19.70;;;8.70;;
72198;SDS011;72266;51.056;16.880;2023-11-22T08:12:55;19.20;;;8.10;;
72198;SDS011;72266;51.056;16.880;2023-11-22T08:15:29;21.30;;;8.00;;
72198;SDS011;72266;51.056;16.880;2023-11-22T08:18:03;15.00;;;6.00;;
72198;SDS011;72266;51.056;16.880;2023-11-22T08:20:37;17.80;;;6.40;;
72198;SDS011;72266;51.056;16.880;2023-11-22T08:23:10;18.90;;;7.40;;
72198;SDS011;72266;51.056;16.880;2023-11-22T08:25:45;16.20;;;6.50;;
72198;SDS011;72266;51.056;16.880;2023-11-22T08:28:20;20.10;;;7.60;;
72198;SDS011;72266;51.056;16.880;2023-11-22T08:30:53;16.10;;;6.60;;
72198;SDS011;72266;51.056;16.880;2023-11-22T08:33:27;17.10;;;7.80;;
72198;SDS011;72266;51.056;16.880;2023-11-22T08:36:01;15.30;;;8.30;;
72198;SDS011;72266;51.056;16.880;2023-11-22T08:38:35;21.20;;;6.80;;
72198;SDS011;72266;51.056;16.880;2023-11-22T08:41:11;18.00;;;8.80;;
72198;SDS011;72266;51.056;16.880;2023-11-22T08:43:45;17.60;;;7.10;;
72198;SDS011;72266;51.056;16.880;2023-11-22T08:46:19;22.80;;;9.70;;
72198;SDS011;72266;51.056;16.880;2023-11-22T08:48:53;21.90;;;9.10;;
72198;SDS011;72266;51.056;16.880;2023-11-22T08:51:28;21.50;;;8.70;;
72198;SDS011;72266;51.056;16.880;2023-11-22T08:54:03;21.80;;;8.30;;
72198;SDS011;72266;51.056;16.880;2023-11-22T08:56:37;20.50;;;8.50;;
72198;SDS011;72266;51.056;16.880;2023-11-22T08:59:12;20.10;;;8.10;;
72198;SDS011;72266;51.056;16.880;2023-11-22T09:01:47;18.00;;;7.40;;
72198;SDS011;72266;51.056;16.880;2023-11-22T09:04:20;16.90;;;7.10;;
72198;SDS011;72266;51.056;16.880;2023-11-22T09:06:57;19.20;;;9.00;;
72198;SDS011;72266;51.056;16.880;2023-11-22T09:09:31;19.20;;;8.70;;
72198;SDS011;72266;51.056;16.880;2023-11-22T09:12:08;19.70;;;8.80;;
72198;SDS011;72266;51.056;16.880;2023-11-22T09:14:42;21.70;;;9.30;;
72198;SDS011;72266;51.056;16.880;2023-11-22T09:17:18;14.30;;;6.60;;
72198;SDS011;72266;51.056;16.880;2023-11-22T09:19:52;17.50;;;6.60;;
72198;SDS011;72266;51.056;16.880;2023-11-22T09:22:29;16.60;;;6.60;;
72198;SDS011;72266;51.056;16.880;2023-11-22T09:25:02;18.90;;;7.70;;
72198;SDS011;72266;51.056;16.880;2023-11-22T09:27:41;19.10;;;9.50;;
72198;SDS011;72266;51.056;16.880;2023-11-22T09:30:18;15.90;;;7.00;;
72198;SDS011;72266;51.056;16.880;2023-11-22T09:33:05;19.70;;;8.30;;
72198;SDS011;72266;51.056;16.880;2023-11-22T09:35:41;18.60;;;7.80;;
72198;SDS011;72266;51.056;16.880;2023-11-22T09:38:18;18.70;;;9.00;;
72198;SDS011;72266;51.056;16.880;2023-11-22T09:40:52;21.30;;;9.60;;
72198;SDS011;72266;51.056;16.880;2023-11-22T09:43:25;20.50;;;8.30;;
72198;SDS011;72266;51.056;16.880;2023-11-22T09:45:59;25.50;;;10.60;;
72198;SDS011;72266;51.056;16.880;2023-11-22T09:48:32;19.00;;;8.60;;
72198;SDS011;72266;51.056;16.880;2023-11-22T09:51:08;19.60;;;9.30;;
72198;SDS011;72266;51.056;16.880;2023-11-22T09:53:49;20.90;;;9.10;;
72198;SDS011;72266;51.056;16.880;2023-11-22T09:56:31;18.20;;;8.20;;
72198;SDS011;72266;51.056;16.880;2023-11-22T09:59:07;17.50;;;7.20;;
72198;SDS011;72266;51.056;16.880;2023-11-22T10:01:44;17.60;;;7.70;;
72198;SDS011;72266;51.056;16.880;2023-11-22T10:04:19;13.90;;;5.60;;
72198;SDS011;72266;51.056;16.880;2023-11-22T10:06:55;20.30;;;9.60;;
72198;SDS011;72266;51.056;16.880;2023-11-22T10:09:29;17.70;;;7.00;;
72198;SDS011;72266;51.056;16.880;2023-11-22T10:12:07;17.20;;;7.10;;
72198;SDS011;72266;51.056;16.880;2023-11-22T10:14:40;17.90;;;7.90;;
72198;SDS011;72266;51.056;16.880;2023-11-22T10:17:13;19.70;;;8.50;;
72198;SDS011;72266;51.056;16.880;2023-11-22T10:19:47;16.90;;;7.60;;
72198;SDS011;72266;51.056;16.880;2023-11-22T10:22:25;22.20;;;9.30;;
72198;SDS011;72266;51.056;16.880;2023-11-22T10:24:59;20.20;;;8.80;;
72198;SDS011;72266;51.056;16.880;2023-11-22T10:27:33;18.90;;;8.60;;
72198;SDS011;72266;51.056;16.880;2023-11-22T10:30:07;15.40;;;6.80;;
72198;SDS011;72266;51.056;16.880;2023-11-22T10:32:42;17.30;;;6.90;;
72198;SDS011;72266;51.056;16.880;2023-11-22T10:35:16;18.90;;;7.60;;
72198;SDS011;72266;51.056;16.880;2023-11-22T10:37:52;15.30;;;6.40;;
72198;SDS011;72266;51.056;16.880;2023-11-22T10:40:25;16.70;;;7.20;;
72198;SDS011;72266;51.056;16.880;2023-11-22T10:43:04;19.60;;;8.20;;
72198;SDS011;72266;51.056;16.880;2023-11-22T10:45:41;16.80;;;7.20;;
72198;SDS011;72266;51.056;16.880;2023-11-22T10:48:19;16.30;;;7.00;;
72198;SDS011;72266;51.056;16.880;2023-11-22T10:50:52;18.20;;;7.20;;
72198;SDS011;72266;51.056;16.880;2023-11-22T10:53:28;16.00;;;6.10;;
72198;SDS011;72266;51.056;16.880;2023-11-22T10:56:07;13.60;;;5.70;;
72198;SDS011;72266;51.056;16.880;2023-11-22T10:58:46;15.90;;;6.50;;
72198;SDS011;72266;51.056;16.880;2023-11-22T11:01:20;15.20;;;6.40;;
72198;SDS011;72266;51.056;16.880;2023-11-22T11:04:02;17.60;;;7.60;;
72198;SDS011;72266;51.056;16.880;2023-11-22T11:06:40;20.20;;;6.90;;
72198;SDS011;72266;51.056;16.880;2023-11-22T11:09:17;13.40;;;5.70;;
72198;SDS011;72266;51.056;16.880;2023-11-22T11:11:55;17.90;;;8.00;;
72198;SDS011;72266;51.056;16.880;2023-11-22T11:14:29;13.90;;;5.80;;
72198;SDS011;72266;51.056;16.880;2023-11-22T11:17:04;18.30;;;7.20;;
72198;SDS011;72266;51.056;16.880;2023-11-22T11:19:38;18.10;;;7.40;;
72198;SDS011;72266;51.056;16.880;2023-11-22T11:22:11;16.90;;;7.30;;
72198;SDS011;72266;51.056;16.880;2023-11-22T11:24:47;17.20;;;6.30;;
72198;SDS011;72266;51.056;16.880;2023-11-22T11:27:21;12.80;;;5.80;;
72198;SDS011;72266;51.056;16.880;2023-11-22T11:29:58;16.80;;;8.00;;
72198;SDS011;72266;51.056;16.880;2023-11-22T11:32:31;14.50;;;5.70;;
72198;SDS011;72266;51.056;16.880;2023-11-22T11:35:05;15.10;;;6.20;;
72198;SDS011;72266;51.056;16.880;2023-11-22T11:37:39;15.40;;;5.90;;
72198;SDS011;72266;51.056;16.880;2023-11-22T11:43:00;14.60;;;6.60;;
72198;SDS011;72266;51.056;16.880;2023-11-22T11:45:36;15.40;;;6.80;;
72198;SDS011;72266;51.056;16.880;2023-11-22T11:48:16;16.60;;;6.40;;
72198;SDS011;72266;51.056;16.880;2023-11-22T11:50:52;13.50;;;6.00;;
72198;SDS011;72266;51.056;16.880;2023-11-22T11:53:26;13.30;;;5.40;;
72198;SDS011;72266;51.056;16.880;2023-11-22T11:56:01;15.80;;;7.20;;
72198;SDS011;72266;51.056;16.880;2023-11-22T11:58:36;17.20;;;6.50;;
72198;SDS011;72266;51.056;16.880;2023-11-22T12:01:11;13.70;;;5.50;;
72198;SDS011;72266;51.056;16.880;2023-11-22T12:03:45;16.30;;;7.60;;
72198;SDS011;72266;51.056;16.880;2023-11-22T12:06:22;12.30;;;5.00;;
72198;SDS011;72266;51.056;16.880;2023-11-22T12:08:56;18.90;;;8.20;;
72198;SDS011;72266;51.056;16.880;2023-11-22T12:11:34;17.50;;;7.40;;
72198;SDS011;72266;51.056;16.880;2023-11-22T12:14:07;13.50;;;5.00;;
72198;SDS011;72266;51.056;16.880;2023-11-22T12:16:41;17.80;;;6.80;;
72198;SDS011;72266;51.056;16.880;2023-11-22T12:19:26;15.70;;;5.90;;
72198;SDS011;72266;51.056;16.880;2023-11-22T12:22:01;12.90;;;6.10;;
72198;SDS011;72266;51.056;16.880;2023-11-22T12:24:37;17.20;;;7.70;;
72198;SDS011;72266;51.056;16.880;2023-11-22T12:27:11;11.50;;;5.10;;
72198;SDS011;72266;51.056;16.880;2023-11-22T12:29:45;14.40;;;5.80;;
72198;SDS011;72266;51.056;16.880;2023-11-22T12:32:24;18.40;;;6.90;;
72198;SDS011;72266;51.056;16.880;2023-11-22T12:35:02;15.30;;;6.40;;
72198;SDS011;72266;51.056;16.880;2023-11-22T12:37:38;17.60;;;8.00;;
72198;SDS011;72266;51.056;16.880;2023-11-22T12:40:15;16.70;;;6.20;;
72198;SDS011;72266;51.056;16.880;2023-11-22T12:42:51;15.90;;;7.50;;
72198;SDS011;72266;51.056;16.880;2023-11-22T12:45:25;15.40;;;6.60;;
72198;SDS011;72266;51.056;16.880;2023-11-22T12:48:00;17.70;;;7.10;;
72198;SDS011;72266;51.056;16.880;2023-11-22T12:50:34;14.10;;;5.70;;
72198;SDS011;72266;51.056;16.880;2023-11-22T12:53:15;14.80;;;6.50;;
72198;SDS011;72266;51.056;16.880;2023-11-22T12:56:10;17.50;;;8.60;;
72198;SDS011;72266;51.056;16.880;2023-11-22T12:58:44;18.00;;;7.50;;
72198;SDS011;72266;51.056;16.880;2023-11-22T13:01:18;14.80;;;6.40;;
72198;SDS011;72266;51.056;16.880;2023-11-22T13:03:51;14.70;;;5.80;;
72198;SDS011;72266;51.056;16.880;2023-11-22T13:06:25;19.40;;;8.20;;
72198;SDS011;72266;51.056;16.880;2023-11-22T13:08:59;16.70;;;8.30;;
72198;SDS011;72266;51.056;16.880;2023-11-22T13:11:33;17.10;;;6.80;;
72198;SDS011;72266;51.056;16.880;2023-11-22T13:14:06;15.50;;;7.30;;
72198;SDS011;72266;51.056;16.880;2023-11-22T13:16:40;12.00;;;5.00;;
72198;SDS011;72266;51.056;16.880;2023-11-22T13:19:15;16.30;;;6.50;;
72198;SDS011;72266;51.056;16.880;2023-11-22T13:21:48;20.10;;;8.00;;
72198;SDS011;72266;51.056;16.880;2023-11-22T13:24:22;19.10;;;8.70;;
72198;SDS011;72266;51.056;16.880;2023-11-22T13:26:56;25.60;;;11.20;;
72198;SDS011;72266;51.056;16.880;2023-11-22T13:29:29;18.30;;;7.00;;
72198;SDS011;72266;51.056;16.880;2023-11-22T13:32:03;14.80;;;6.80;;
72198;SDS011;72266;51.056;16.880;2023-11-22T13:34:37;17.80;;;7.70;;
72198;SDS011;72266;51.056;16.880;2023-11-22T13:37:11;17.70;;;8.00;;
72198;SDS011;72266;51.056;16.880;2023-11-22T13:39:46;15.70;;;7.00;;
72198;SDS011;72266;51.056;16.880;2023-11-22T13:42:19;17.50;;;7.80;;
72198;SDS011;72266;51.056;16.880;2023-11-22T13:44:53;19.70;;;8.90;;
72198;SDS011;72266;51.056;16.880;2023-11-22T13:47:27;16.80;;;7.90;;
72198;SDS011;72266;51.056;16.880;2023-11-22T13:50:01;15.80;;;7.10;;
72198;SDS011;72266;51.056;16.880;2023-11-22T13:52:36;18.80;;;8.50;;
72198;SDS011;72266;51.056;16.880;2023-11-22T13:55:11;15.90;;;7.00;;
72198;SDS011;72266;51.056;16.880;2023-11-22T13:57:46;15.70;;;6.90;;
72198;SDS011;72266;51.056;16.880;2023-11-22T14:00:21;14.20;;;5.50;;
72198;SDS011;72266;51.056;16.880;2023-11-22T14:02:57;16.00;;;6.50;;
72198;SDS011;72266;51.056;16.880;2023-11-22T14:05:38;17.90;;;8.00;;
72198;SDS011;72266;51.056;16.880;2023-11-22T14:08:11;15.10;;;6.40;;
72198;SDS011;72266;51.056;16.880;2023-11-22T14:10:48;16.90;;;6.70;;
72198;SDS011;72266;51.056;16.880;2023-11-22T14:13:22;14.40;;;6.20;;
72198;SDS011;72266;51.056;16.880;2023-11-22T14:15:55;16.30;;;6.50;;
72198;SDS011;72266;51.056;16.880;2023-11-22T14:18:31;17.90;;;7.40;;
72198;SDS011;72266;51.056;16.880;2023-11-22T14:21:05;16.50;;;7.20;;
72198;SDS011;72266;51.056;16.880;2023-11-22T14:23:40;15.80;;;7.10;;
72198;SDS011;72266;51.056;16.880;2023-11-22T14:26:13;15.90;;;6.40;;
72198;SDS011;72266;51.056;16.880;2023-11-22T14:28:47;17.80;;;8.50;;
72198;SDS011;72266;51.056;16.880;2023-11-22T14:31:21;18.80;;;7.30;;
72198;SDS011;72266;51.056;16.880;2023-11-22T14:33:54;13.70;;;5.40;;
72198;SDS011;72266;51.056;16.880;2023-11-22T14:36:27;14.70;;;6.30;;
72198;SDS011;72266;51.056;16.880;2023-11-22T14:39:01;16.30;;;6.70;;
72198;SDS011;72266;51.056;16.880;2023-11-22T16:54:50;19.40;;;7.70;;
72198;SDS011;72266;51.056;16.880;2023-11-22T16:57:24;14.60;;;5.70;;
72198;SDS011;72266;51.056;16.880;2023-11-22T16:59:58;18.50;;;7.40;;
72198;SDS011;72266;51.056;16.880;2023-11-22T17:05:36;18.20;;;7.30;;
72198;SDS011;72266;51.056;16.880;2023-11-22T17:10:58;19.90;;;8.90;;
72198;SDS011;72266;51.056;16.880;2023-11-22T17:13:31;18.90;;;7.90;;
72198;SDS011;72266;51.056;16.880;2023-11-22T17:16:05;14.60;;;5.50;;
72198;SDS011;72266;51.056;16.880;2023-11-22T17:18:59;20.80;;;8.80;;
72198;SDS011;72266;51.056;16.880;2023-11-22T17:21:33;18.30;;;7.50;;
72198;SDS011;72266;51.056;16.880;2023-11-22T17:24:07;24.10;;;9.60;;